Ocracoke, NC

2:39 AM EDT on September 20, 2014 (GMT -0400)
The Ocracoke Harbor Inn/Silver Lake | Change Station
CLOSE
Current Station
Personal Weather Station
Location: Ocracoke, NC
Elevation: 15 ft
Nearby Weather Stations

Elev 15 ft 35.11 °N, 75.98 °W | Updated 3 seconds ago

Partly Cloudy
Partly Cloudy
73.4 °F
Feels Like 73 °F
N
10.0
Wind Variable Wind from ENE
Gusts 20.0 mph

Today
High -- | Low -- °F
--% Chance of Precip.
Yesterday
High -- | Low -- °F
Precip. -- in
6:50 AM 7:03 PM
Waning Crescent, 14% visible
Pressure 30.17 in
Visibility 10.0 miles
Clouds Clear
Heat Index 73 °F
Dew Point 68 °F
Humidity 82%
Rainfall 0.00 in
Snow Depth Not available.
UV 0 out of 12
Pollen 5.50 out of 12
Air Quality Not available.
Flu Activity Not available.
METAR KHSE 200551Z AUTO 04009G15KT 020V080 10SM CLR 21/18 A3017 RMK AO2 SLP215 T02110178 10217 20211 58010 TSNO

More Conditions Fewer Conditions

Pressure 30.17 in
Visibility 10.0 miles
Clouds Clear
Heat Index 73 °F
Dew Point 68 °F
Humidity 82%
Rainfall 0.00 in
Snow Depth Not available.
UV 0 out of 12
Pollen 5.50 out of 12
Air Quality Not available.
Flu Activity Not available.
METAR KHSE 200551Z AUTO 04009G15KT 020V080 10SM CLR 21/18 A3017 RMK AO2 SLP215 T02110178 10217 20211 58010 TSNO

More Conditions Fewer Conditions

10-Day Weather Forecast

Almanac

Astronomy

Sep. 20, 2014 Rise Set
Actual Time 6:50 AM EDT 7:03 PM EDT
Civil Twilight 6:25 AM EDT 7:28 PM EDT
Nautical Twilight 5:55 AM EDT 7:58 PM EDT
Astronomical Twilight 5:25 AM EDT 8:28 PM EDT
Moon 3:33 AM EDT 5:00 PM EDT
Length of Visible Light 13h 03m
Length of Day
12h 13m
Tomorrow will be 2m 10s shorter.
Waning Crescent, 14% of the Moon is Illuminated
Today
Waning Crescent
Sep 24
New
Oct 1
First Quarter
Oct 8
Full
Oct 15
Last Quarter

Today's Extremes

State Highs State Lows

Community

WunderPhotos

Upload Photos

1,754,779 photos uploaded!

WunderBlogs® & News

Nearby

Snow Depth

Station Depth Elevation
No new snow has been reported.

Earthquake Activity

City Distance Mag. Time & Date
No recent earthquake activity has been reported nearby.
Minimum magnitude displayed is 2.5.

Coastal Water Temperatures

Place Temperature
Beaufort, NC 75.9 °F
Hatteras, NC 75.0 °F
Oregon Inlet Marina, NC 73.9 °F
Duck Pier, NC 73.9 °F
Johnny Mercer Pier, Wrightsville Beach, NC 80.1 °F

Nearby Weather Stations